sensor_id;sensor_type;location;lat;lon;timestamp;P1;durP1;ratioP1;P2;durP2;ratioP2
84309;SDS011;74488;49.036;11.472;2024-03-02T00:00:13;49.20;;;30.27;;
84309;SDS011;74488;49.036;11.472;2024-03-02T00:01:15;44.45;;;28.02;;
84309;SDS011;74488;49.036;11.472;2024-03-02T00:02:17;42.38;;;28.13;;
84309;SDS011;74488;49.036;11.472;2024-03-02T00:03:18;44.60;;;26.98;;
84309;SDS011;74488;49.036;11.472;2024-03-02T00:04:21;37.47;;;25.42;;
84309;SDS011;74488;49.036;11.472;2024-03-02T00:05:23;38.60;;;24.92;;
84309;SDS011;74488;49.036;11.472;2024-03-02T00:06:24;38.28;;;24.95;;
84309;SDS011;74488;49.036;11.472;2024-03-02T00:07:26;39.42;;;24.85;;
84309;SDS011;74488;49.036;11.472;2024-03-02T00:08:27;42.05;;;26.67;;
84309;SDS011;74488;49.036;11.472;2024-03-02T00:09:30;41.00;;;24.33;;
84309;SDS011;74488;49.036;11.472;2024-03-02T00:10:38;40.85;;;27.48;;
84309;SDS011;74488;49.036;11.472;2024-03-02T00:11:41;38.42;;;24.13;;
84309;SDS011;74488;49.036;11.472;2024-03-02T00:12:43;38.95;;;25.73;;
84309;SDS011;74488;49.036;11.472;2024-03-02T00:13:48;38.63;;;24.73;;
84309;SDS011;74488;49.036;11.472;2024-03-02T00:14:49;42.05;;;26.73;;
84309;SDS011;74488;49.036;11.472;2024-03-02T00:15:52;41.55;;;26.60;;
84309;SDS011;74488;49.036;11.472;2024-03-02T00:16:57;40.83;;;24.77;;
84309;SDS011;74488;49.036;11.472;2024-03-02T00:18:00;42.40;;;25.25;;
84309;SDS011;74488;49.036;11.472;2024-03-02T00:19:05;42.20;;;23.90;;
84309;SDS011;74488;49.036;11.472;2024-03-02T00:20:08;43.20;;;26.92;;
84309;SDS011;74488;49.036;11.472;2024-03-02T00:21:11;41.58;;;25.38;;
84309;SDS011;74488;49.036;11.472;2024-03-02T00:22:14;40.35;;;26.85;;
84309;SDS011;74488;49.036;11.472;2024-03-02T00:23:16;42.88;;;26.67;;
84309;SDS011;74488;49.036;11.472;2024-03-02T00:24:21;43.47;;;25.73;;
84309;SDS011;74488;49.036;11.472;2024-03-02T00:25:38;41.03;;;25.98;;
84309;SDS011;74488;49.036;11.472;2024-03-02T00:26:44;40.67;;;26.95;;
84309;SDS011;74488;49.036;11.472;2024-03-02T00:27:48;36.30;;;23.33;;
84309;SDS011;74488;49.036;11.472;2024-03-02T00:28:50;39.67;;;25.38;;
84309;SDS011;74488;49.036;11.472;2024-03-02T00:30:00;36.88;;;23.65;;
84309;SDS011;74488;49.036;11.472;2024-03-02T00:31:03;46.33;;;25.90;;
84309;SDS011;74488;49.036;11.472;2024-03-02T00:32:12;44.40;;;25.15;;
84309;SDS011;74488;49.036;11.472;2024-03-02T00:33:16;41.15;;;25.00;;
84309;SDS011;74488;49.036;11.472;2024-03-02T00:34:19;43.03;;;28.23;;
84309;SDS011;74488;49.036;11.472;2024-03-02T00:35:21;40.15;;;25.95;;
84309;SDS011;74488;49.036;11.472;2024-03-02T00:36:24;40.30;;;27.45;;
84309;SDS011;74488;49.036;11.472;2024-03-02T00:37:27;40.50;;;25.15;;
84309;SDS011;74488;49.036;11.472;2024-03-02T00:38:29;42.58;;;25.58;;
84309;SDS011;74488;49.036;11.472;2024-03-02T00:39:31;37.10;;;24.80;;
84309;SDS011;74488;49.036;11.472;2024-03-02T00:40:33;40.05;;;24.38;;
84309;SDS011;74488;49.036;11.472;2024-03-02T00:41:35;36.00;;;26.10;;
84309;SDS011;74488;49.036;11.472;2024-03-02T00:42:37;40.88;;;24.30;;
84309;SDS011;74488;49.036;11.472;2024-03-02T00:44:55;39.28;;;23.65;;
84309;SDS011;74488;49.036;11.472;2024-03-02T00:45:56;39.53;;;24.67;;
84309;SDS011;74488;49.036;11.472;2024-03-02T00:46:58;40.75;;;25.23;;
84309;SDS011;74488;49.036;11.472;2024-03-02T00:48:00;41.03;;;24.10;;
84309;SDS011;74488;49.036;11.472;2024-03-02T00:49:03;36.97;;;22.38;;
84309;SDS011;74488;49.036;11.472;2024-03-02T00:50:06;39.17;;;25.15;;
84309;SDS011;74488;49.036;11.472;2024-03-02T00:51:21;36.22;;;24.02;;
84309;SDS011;74488;49.036;11.472;2024-03-02T00:52:24;38.83;;;24.88;;
84309;SDS011;74488;49.036;11.472;2024-03-02T00:53:26;40.45;;;24.00;;
84309;SDS011;74488;49.036;11.472;2024-03-02T00:54:27;42.00;;;25.75;;
84309;SDS011;74488;49.036;11.472;2024-03-02T00:55:30;41.88;;;26.50;;
84309;SDS011;74488;49.036;11.472;2024-03-02T00:56:32;38.83;;;24.58;;
84309;SDS011;74488;49.036;11.472;2024-03-02T00:57:36;39.33;;;23.40;;
84309;SDS011;74488;49.036;11.472;2024-03-02T00:58:37;40.00;;;24.85;;
84309;SDS011;74488;49.036;11.472;2024-03-02T00:59:39;39.83;;;22.80;;
84309;SDS011;74488;49.036;11.472;2024-03-02T01:00:41;39.78;;;26.88;;
84309;SDS011;74488;49.036;11.472;2024-03-02T01:01:42;37.88;;;24.85;;
84309;SDS011;74488;49.036;11.472;2024-03-02T01:02:44;42.50;;;25.33;;
84309;SDS011;74488;49.036;11.472;2024-03-02T01:03:48;40.17;;;23.63;;
84309;SDS011;74488;49.036;11.472;2024-03-02T01:04:50;39.75;;;24.23;;
84309;SDS011;74488;49.036;11.472;2024-03-02T01:05:52;40.30;;;26.00;;
84309;SDS011;74488;49.036;11.472;2024-03-02T01:06:53;35.15;;;22.88;;
84309;SDS011;74488;49.036;11.472;2024-03-02T01:07:55;38.67;;;23.80;;
84309;SDS011;74488;49.036;11.472;2024-03-02T01:08:56;36.60;;;22.95;;
84309;SDS011;74488;49.036;11.472;2024-03-02T01:09:58;37.17;;;24.88;;
84309;SDS011;74488;49.036;11.472;2024-03-02T01:11:00;39.03;;;21.45;;
84309;SDS011;74488;49.036;11.472;2024-03-02T01:12:01;37.38;;;23.85;;
84309;SDS011;74488;49.036;11.472;2024-03-02T01:13:03;39.55;;;24.50;;
84309;SDS011;74488;49.036;11.472;2024-03-02T01:14:04;41.00;;;24.55;;
84309;SDS011;74488;49.036;11.472;2024-03-02T01:15:06;36.67;;;23.08;;
84309;SDS011;74488;49.036;11.472;2024-03-02T01:16:09;34.70;;;22.67;;
84309;SDS011;74488;49.036;11.472;2024-03-02T01:17:10;42.75;;;24.38;;
84309;SDS011;74488;49.036;11.472;2024-03-02T01:18:12;40.97;;;24.33;;
84309;SDS011;74488;49.036;11.472;2024-03-02T01:19:13;38.30;;;23.40;;
84309;SDS011;74488;49.036;11.472;2024-03-02T01:20:16;39.40;;;25.25;;
84309;SDS011;74488;49.036;11.472;2024-03-02T01:21:18;38.53;;;24.08;;
84309;SDS011;74488;49.036;11.472;2024-03-02T01:22:19;37.88;;;23.85;;
84309;SDS011;74488;49.036;11.472;2024-03-02T01:23:26;40.85;;;25.58;;
84309;SDS011;74488;49.036;11.472;2024-03-02T01:24:28;34.90;;;22.38;;
84309;SDS011;74488;49.036;11.472;2024-03-02T01:25:29;37.85;;;25.13;;
84309;SDS011;74488;49.036;11.472;2024-03-02T01:26:31;36.97;;;23.15;;
84309;SDS011;74488;49.036;11.472;2024-03-02T01:27:32;39.22;;;24.95;;
84309;SDS011;74488;49.036;11.472;2024-03-02T01:28:34;39.30;;;23.88;;
84309;SDS011;74488;49.036;11.472;2024-03-02T01:29:35;36.28;;;21.40;;
84309;SDS011;74488;49.036;11.472;2024-03-02T01:30:37;35.45;;;21.58;;
84309;SDS011;74488;49.036;11.472;2024-03-02T01:31:38;35.88;;;23.05;;
84309;SDS011;74488;49.036;11.472;2024-03-02T01:33:44;31.13;;;21.23;;
84309;SDS011;74488;49.036;11.472;2024-03-02T01:34:46;32.58;;;22.20;;
84309;SDS011;74488;49.036;11.472;2024-03-02T01:35:47;32.90;;;20.85;;
84309;SDS011;74488;49.036;11.472;2024-03-02T01:36:49;35.15;;;21.70;;
84309;SDS011;74488;49.036;11.472;2024-03-02T01:37:51;35.20;;;19.58;;
84309;SDS011;74488;49.036;11.472;2024-03-02T01:38:52;31.58;;;21.10;;
84309;SDS011;74488;49.036;11.472;2024-03-02T01:39:53;32.20;;;20.17;;
84309;SDS011;74488;49.036;11.472;2024-03-02T01:40:55;31.52;;;20.67;;
84309;SDS011;74488;49.036;11.472;2024-03-02T01:41:58;36.70;;;22.40;;
84309;SDS011;74488;49.036;11.472;2024-03-02T01:42:59;34.17;;;21.17;;
84309;SDS011;74488;49.036;11.472;2024-03-02T01:44:01;34.97;;;23.85;;
84309;SDS011;74488;49.036;11.472;2024-03-02T01:45:04;37.90;;;21.23;;
84309;SDS011;74488;49.036;11.472;2024-03-02T01:46:06;35.50;;;21.40;;
84309;SDS011;74488;49.036;11.472;2024-03-02T01:47:08;36.58;;;24.05;;
84309;SDS011;74488;49.036;11.472;2024-03-02T01:48:09;36.45;;;23.80;;
84309;SDS011;74488;49.036;11.472;2024-03-02T01:49:11;35.20;;;23.10;;
84309;SDS011;74488;49.036;11.472;2024-03-02T01:50:12;39.00;;;25.00;;
84309;SDS011;74488;49.036;11.472;2024-03-02T01:51:14;34.63;;;21.90;;
84309;SDS011;74488;49.036;11.472;2024-03-02T01:52:16;39.45;;;26.17;;
84309;SDS011;74488;49.036;11.472;2024-03-02T01:53:17;38.90;;;24.83;;
84309;SDS011;74488;49.036;11.472;2024-03-02T01:54:19;37.08;;;23.75;;
84309;SDS011;74488;49.036;11.472;2024-03-02T01:55:20;36.97;;;24.10;;
84309;SDS011;74488;49.036;11.472;2024-03-02T01:56:22;33.17;;;22.42;;
84309;SDS011;74488;49.036;11.472;2024-03-02T01:57:23;33.38;;;22.60;;
84309;SDS011;74488;49.036;11.472;2024-03-02T01:58:25;39.38;;;22.80;;
84309;SDS011;74488;49.036;11.472;2024-03-02T01:59:27;34.92;;;23.00;;
84309;SDS011;74488;49.036;11.472;2024-03-02T02:00:28;37.83;;;24.42;;
84309;SDS011;74488;49.036;11.472;2024-03-02T02:01:31;39.35;;;23.15;;
84309;SDS011;74488;49.036;11.472;2024-03-02T02:02:33;34.65;;;22.40;;
84309;SDS011;74488;49.036;11.472;2024-03-02T02:03:34;39.70;;;24.17;;
84309;SDS011;74488;49.036;11.472;2024-03-02T02:04:35;34.78;;;22.08;;
84309;SDS011;74488;49.036;11.472;2024-03-02T02:05:37;32.30;;;20.92;;
84309;SDS011;74488;49.036;11.472;2024-03-02T02:06:39;35.15;;;22.27;;
84309;SDS011;74488;49.036;11.472;2024-03-02T02:07:43;40.30;;;23.05;;
84309;SDS011;74488;49.036;11.472;2024-03-02T02:08:45;34.65;;;24.38;;
84309;SDS011;74488;49.036;11.472;2024-03-02T02:09:48;38.47;;;22.40;;
84309;SDS011;74488;49.036;11.472;2024-03-02T02:10:49;35.05;;;21.40;;
84309;SDS011;74488;49.036;11.472;2024-03-02T02:11:51;36.58;;;22.48;;
84309;SDS011;74488;49.036;11.472;2024-03-02T02:12:53;37.85;;;22.25;;
84309;SDS011;74488;49.036;11.472;2024-03-02T02:13:54;36.72;;;23.08;;
84309;SDS011;74488;49.036;11.472;2024-03-02T02:14:59;36.00;;;23.83;;
84309;SDS011;74488;49.036;11.472;2024-03-02T02:16:04;33.78;;;21.75;;
84309;SDS011;74488;49.036;11.472;2024-03-02T02:17:07;32.83;;;20.67;;
84309;SDS011;74488;49.036;11.472;2024-03-02T02:18:08;33.58;;;21.65;;
84309;SDS011;74488;49.036;11.472;2024-03-02T02:19:10;39.88;;;23.77;;
84309;SDS011;74488;49.036;11.472;2024-03-02T02:20:11;34.20;;;21.80;;
84309;SDS011;74488;49.036;11.472;2024-03-02T02:21:13;32.47;;;21.65;;
84309;SDS011;74488;49.036;11.472;2024-03-02T02:22:15;36.80;;;21.15;;
84309;SDS011;74488;49.036;11.472;2024-03-02T02:23:16;36.05;;;23.08;;
84309;SDS011;74488;49.036;11.472;2024-03-02T02:24:19;30.60;;;21.55;;
84309;SDS011;74488;49.036;11.472;2024-03-02T02:25:21;33.65;;;20.88;;
84309;SDS011;74488;49.036;11.472;2024-03-02T02:26:22;33.63;;;22.35;;
84309;SDS011;74488;49.036;11.472;2024-03-02T02:27:24;33.10;;;20.05;;
84309;SDS011;74488;49.036;11.472;2024-03-02T02:28:25;30.92;;;18.65;;
84309;SDS011;74488;49.036;11.472;2024-03-02T02:29:27;27.20;;;19.83;;
84309;SDS011;74488;49.036;11.472;2024-03-02T02:30:30;32.22;;;21.40;;
84309;SDS011;74488;49.036;11.472;2024-03-02T02:31:42;29.13;;;18.88;;
84309;SDS011;74488;49.036;11.472;2024-03-02T02:32:43;32.08;;;20.60;;
84309;SDS011;74488;49.036;11.472;2024-03-02T02:33:45;29.10;;;17.98;;
84309;SDS011;74488;49.036;11.472;2024-03-02T02:34:46;30.52;;;19.70;;
84309;SDS011;74488;49.036;11.472;2024-03-02T02:35:48;32.72;;;21.80;;
84309;SDS011;74488;49.036;11.472;2024-03-02T02:36:49;35.58;;;19.73;;
84309;SDS011;74488;49.036;11.472;2024-03-02T02:37:51;33.45;;;19.23;;
84309;SDS011;74488;49.036;11.472;2024-03-02T02:38:55;34.25;;;20.83;;
84309;SDS011;74488;49.036;11.472;2024-03-02T02:39:57;35.05;;;21.35;;
84309;SDS011;74488;49.036;11.472;2024-03-02T02:40:58;33.45;;;20.92;;
84309;SDS011;74488;49.036;11.472;2024-03-02T02:42:00;33.58;;;22.27;;
84309;SDS011;74488;49.036;11.472;2024-03-02T02:43:02;30.20;;;18.95;;
84309;SDS011;74488;49.036;11.472;2024-03-02T02:44:04;34.22;;;20.83;;
84309;SDS011;74488;49.036;11.472;2024-03-02T02:45:06;34.90;;;20.50;;
84309;SDS011;74488;49.036;11.472;2024-03-02T02:46:08;34.20;;;20.98;;
84309;SDS011;74488;49.036;11.472;2024-03-02T02:47:09;34.13;;;21.77;;
84309;SDS011;74488;49.036;11.472;2024-03-02T02:48:11;28.63;;;19.92;;
84309;SDS011;74488;49.036;11.472;2024-03-02T02:49:12;25.45;;;19.55;;
84309;SDS011;74488;49.036;11.472;2024-03-02T02:50:14;32.00;;;21.85;;
84309;SDS011;74488;49.036;11.472;2024-03-02T02:51:16;37.20;;;22.98;;
84309;SDS011;74488;49.036;11.472;2024-03-02T02:52:18;32.03;;;21.00;;
84309;SDS011;74488;49.036;11.472;2024-03-02T02:53:19;31.08;;;20.33;;
84309;SDS011;74488;49.036;11.472;2024-03-02T02:54:21;32.17;;;20.45;;
84309;SDS011;74488;49.036;11.472;2024-03-02T02:55:22;32.85;;;19.33;;
84309;SDS011;74488;49.036;11.472;2024-03-02T02:56:24;32.70;;;20.02;;
84309;SDS011;74488;49.036;11.472;2024-03-02T02:57:25;30.63;;;20.10;;
84309;SDS011;74488;49.036;11.472;2024-03-02T02:58:27;31.42;;;20.42;;
84309;SDS011;74488;49.036;11.472;2024-03-02T02:59:28;30.90;;;21.02;;
84309;SDS011;74488;49.036;11.472;2024-03-02T03:00:30;35.90;;;22.23;;
84309;SDS011;74488;49.036;11.472;2024-03-02T03:01:31;35.83;;;21.67;;
84309;SDS011;74488;49.036;11.472;2024-03-02T03:02:33;30.73;;;21.58;;
84309;SDS011;74488;49.036;11.472;2024-03-02T03:03:34;31.63;;;20.20;;
84309;SDS011;74488;49.036;11.472;2024-03-02T03:04:36;33.17;;;22.05;;
84309;SDS011;74488;49.036;11.472;2024-03-02T03:05:37;32.53;;;20.70;;
84309;SDS011;74488;49.036;11.472;2024-03-02T03:06:39;32.20;;;19.15;;
84309;SDS011;74488;49.036;11.472;2024-03-02T03:07:41;34.58;;;19.35;;
84309;SDS011;74488;49.036;11.472;2024-03-02T03:08:43;33.08;;;19.85;;
84309;SDS011;74488;49.036;11.472;2024-03-02T03:09:44;29.35;;;19.00;;
84309;SDS011;74488;49.036;11.472;2024-03-02T03:10:46;31.77;;;22.10;;
84309;SDS011;74488;49.036;11.472;2024-03-02T03:11:47;32.83;;;20.85;;
84309;SDS011;74488;49.036;11.472;2024-03-02T03:12:49;32.15;;;20.05;;
84309;SDS011;74488;49.036;11.472;2024-03-02T03:13:50;31.92;;;19.98;;
84309;SDS011;74488;49.036;11.472;2024-03-02T03:14:52;32.50;;;21.30;;
84309;SDS011;74488;49.036;11.472;2024-03-02T03:15:53;31.42;;;20.63;;
84309;SDS011;74488;49.036;11.472;2024-03-02T03:16:55;29.15;;;21.58;;
84309;SDS011;74488;49.036;11.472;2024-03-02T03:17:56;29.02;;;19.42;;
84309;SDS011;74488;49.036;11.472;2024-03-02T03:18:58;36.15;;;22.65;;
84309;SDS011;74488;49.036;11.472;2024-03-02T03:20:00;31.75;;;20.40;;
84309;SDS011;74488;49.036;11.472;2024-03-02T03:21:02;31.42;;;19.92;;
84309;SDS011;74488;49.036;11.472;2024-03-02T03:22:04;32.55;;;20.27;;
84309;SDS011;74488;49.036;11.472;2024-03-02T03:23:05;30.20;;;19.98;;
84309;SDS011;74488;49.036;11.472;2024-03-02T03:24:07;28.25;;;18.52;;
84309;SDS011;74488;49.036;11.472;2024-03-02T03:25:09;32.00;;;21.15;;
84309;SDS011;74488;49.036;11.472;2024-03-02T03:26:10;26.73;;;16.92;;
84309;SDS011;74488;49.036;11.472;2024-03-02T03:27:12;26.88;;;17.05;;
84309;SDS011;74488;49.036;11.472;2024-03-02T03:28:13;23.50;;;16.50;;
84309;SDS011;74488;49.036;11.472;2024-03-02T03:29:15;24.08;;;19.17;;
84309;SDS011;74488;49.036;11.472;2024-03-02T03:30:16;24.45;;;18.25;;
84309;SDS011;74488;49.036;11.472;2024-03-02T03:31:18;27.52;;;17.80;;
84309;SDS011;74488;49.036;11.472;2024-03-02T03:32:19;25.48;;;17.35;;
84309;SDS011;74488;49.036;11.472;2024-03-02T03:33:21;25.33;;;17.55;;
84309;SDS011;74488;49.036;11.472;2024-03-02T03:34:22;23.27;;;16.15;;
84309;SDS011;74488;49.036;11.472;2024-03-02T03:35:24;24.15;;;16.65;;
84309;SDS011;74488;49.036;11.472;2024-03-02T03:36:26;25.77;;;18.63;;
84309;SDS011;74488;49.036;11.472;2024-03-02T03:37:27;26.17;;;18.27;;
84309;SDS011;74488;49.036;11.472;2024-03-02T03:38:34;24.92;;;16.48;;
84309;SDS011;74488;49.036;11.472;2024-03-02T03:39:35;24.38;;;16.92;;
84309;SDS011;74488;49.036;11.472;2024-03-02T03:40:37;22.08;;;16.33;;
84309;SDS011;74488;49.036;11.472;2024-03-02T03:41:40;25.10;;;18.23;;
84309;SDS011;74488;49.036;11.472;2024-03-02T03:42:42;29.05;;;19.50;;
84309;SDS011;74488;49.036;11.472;2024-03-02T03:43:43;27.05;;;16.88;;
84309;SDS011;74488;49.036;11.472;2024-03-02T03:44:45;24.85;;;16.58;;
84309;SDS011;74488;49.036;11.472;2024-03-02T03:45:46;25.65;;;16.83;;
84309;SDS011;74488;49.036;11.472;2024-03-02T03:46:48;22.98;;;17.40;;
84309;SDS011;74488;49.036;11.472;2024-03-02T03:47:49;23.65;;;15.88;;
84309;SDS011;74488;49.036;11.472;2024-03-02T03:48:51;25.55;;;16.95;;
84309;SDS011;74488;49.036;11.472;2024-03-02T03:49:53;22.27;;;15.82;;
84309;SDS011;74488;49.036;11.472;2024-03-02T03:50:54;24.25;;;17.02;;
84309;SDS011;74488;49.036;11.472;2024-03-02T03:51:55;21.65;;;15.38;;
84309;SDS011;74488;49.036;11.472;2024-03-02T03:52:57;25.67;;;16.13;;
84309;SDS011;74488;49.036;11.472;2024-03-02T03:53:59;24.20;;;17.45;;
84309;SDS011;74488;49.036;11.472;2024-03-02T03:55:00;22.88;;;16.08;;
84309;SDS011;74488;49.036;11.472;2024-03-02T03:56:02;23.30;;;15.98;;
84309;SDS011;74488;49.036;11.472;2024-03-02T03:57:04;22.55;;;15.52;;
84309;SDS011;74488;49.036;11.472;2024-03-02T03:58:06;24.48;;;17.17;;
84309;SDS011;74488;49.036;11.472;2024-03-02T03:59:07;23.00;;;15.55;;
84309;SDS011;74488;49.036;11.472;2024-03-02T04:00:09;25.77;;;17.40;;
84309;SDS011;74488;49.036;11.472;2024-03-02T04:01:11;24.35;;;16.75;;
84309;SDS011;74488;49.036;11.472;2024-03-02T04:02:13;26.73;;;19.00;;
84309;SDS011;74488;49.036;11.472;2024-03-02T04:03:14;29.17;;;20.50;;
84309;SDS011;74488;49.036;11.472;2024-03-02T04:04:16;26.77;;;19.05;;
84309;SDS011;74488;49.036;11.472;2024-03-02T04:05:18;27.65;;;17.70;;
84309;SDS011;74488;49.036;11.472;2024-03-02T04:06:19;26.92;;;18.05;;
84309;SDS011;74488;49.036;11.472;2024-03-02T04:07:21;27.75;;;18.10;;
84309;SDS011;74488;49.036;11.472;2024-03-02T04:08:22;25.58;;;17.73;;
84309;SDS011;74488;49.036;11.472;2024-03-02T04:09:24;26.42;;;16.73;;
84309;SDS011;74488;49.036;11.472;2024-03-02T04:10:26;27.17;;;17.98;;
84309;SDS011;74488;49.036;11.472;2024-03-02T04:11:28;27.23;;;19.30;;
84309;SDS011;74488;49.036;11.472;2024-03-02T04:12:29;26.05;;;16.48;;
84309;SDS011;74488;49.036;11.472;2024-03-02T04:13:31;27.48;;;17.00;;
84309;SDS011;74488;49.036;11.472;2024-03-02T04:14:32;26.50;;;17.55;;
84309;SDS011;74488;49.036;11.472;2024-03-02T04:15:34;28.05;;;18.42;;
84309;SDS011;74488;49.036;11.472;2024-03-02T04:16:35;26.42;;;17.25;;
84309;SDS011;74488;49.036;11.472;2024-03-02T04:17:37;26.52;;;17.67;;
84309;SDS011;74488;49.036;11.472;2024-03-02T04:18:38;26.63;;;19.55;;
84309;SDS011;74488;49.036;11.472;2024-03-02T04:19:41;24.50;;;16.48;;
84309;SDS011;74488;49.036;11.472;2024-03-02T04:20:42;25.83;;;18.65;;
84309;SDS011;74488;49.036;11.472;2024-03-02T04:21:44;28.73;;;19.45;;
84309;SDS011;74488;49.036;11.472;2024-03-02T04:22:45;28.00;;;19.42;;
84309;SDS011;74488;49.036;11.472;2024-03-02T04:23:47;25.45;;;18.42;;
84309;SDS011;74488;49.036;11.472;2024-03-02T04:24:48;28.27;;;18.70;;
84309;SDS011;74488;49.036;11.472;2024-03-02T04:25:50;27.00;;;17.75;;
84309;SDS011;74488;49.036;11.472;2024-03-02T04:26:51;29.42;;;19.02;;
84309;SDS011;74488;49.036;11.472;2024-03-02T04:27:53;26.45;;;18.27;;
84309;SDS011;74488;49.036;11.472;2024-03-02T04:28:55;28.00;;;19.65;;
84309;SDS011;74488;49.036;11.472;2024-03-02T04:29:56;29.90;;;17.30;;
84309;SDS011;74488;49.036;11.472;2024-03-02T04:30:57;27.60;;;17.67;;
84309;SDS011;74488;49.036;11.472;2024-03-02T04:31:59;26.75;;;17.17;;
84309;SDS011;74488;49.036;11.472;2024-03-02T04:33:01;26.80;;;18.45;;
84309;SDS011;74488;49.036;11.472;2024-03-02T04:34:03;27.95;;;19.25;;
84309;SDS011;74488;49.036;11.472;2024-03-02T04:35:05;31.25;;;18.58;;
84309;SDS011;74488;49.036;11.472;2024-03-02T04:36:09;29.33;;;18.83;;
84309;SDS011;74488;49.036;11.472;2024-03-02T04:37:11;28.10;;;19.00;;
84309;SDS011;74488;49.036;11.472;2024-03-02T04:38:13;25.15;;;17.23;;
84309;SDS011;74488;49.036;11.472;2024-03-02T04:39:15;27.00;;;18.85;;
84309;SDS011;74488;49.036;11.472;2024-03-02T04:40:17;26.83;;;19.27;;
84309;SDS011;74488;49.036;11.472;2024-03-02T04:41:19;36.53;;;23.15;;
84309;SDS011;74488;49.036;11.472;2024-03-02T04:42:20;31.83;;;20.70;;
84309;SDS011;74488;49.036;11.472;2024-03-02T04:43:22;34.67;;;21.00;;
84309;SDS011;74488;49.036;11.472;2024-03-02T04:44:23;36.90;;;24.20;;
84309;SDS011;74488;49.036;11.472;2024-03-02T04:45:25;35.53;;;21.88;;
84309;SDS011;74488;49.036;11.472;2024-03-02T04:46:26;35.17;;;22.02;;
84309;SDS011;74488;49.036;11.472;2024-03-02T04:47:28;35.88;;;21.83;;
84309;SDS011;74488;49.036;11.472;2024-03-02T04:48:29;34.38;;;19.98;;
84309;SDS011;74488;49.036;11.472;2024-03-02T04:49:31;32.15;;;20.30;;
84309;SDS011;74488;49.036;11.472;2024-03-02T04:50:32;35.05;;;19.55;;
84309;SDS011;74488;49.036;11.472;2024-03-02T04:51:34;33.83;;;21.48;;
84309;SDS011;74488;49.036;11.472;2024-03-02T04:52:36;31.80;;;20.92;;
84309;SDS011;74488;49.036;11.472;2024-03-02T04:53:37;31.90;;;20.52;;
84309;SDS011;74488;49.036;11.472;2024-03-02T04:54:39;29.13;;;18.70;;
84309;SDS011;74488;49.036;11.472;2024-03-02T04:55:59;29.63;;;20.17;;
84309;SDS011;74488;49.036;11.472;2024-03-02T04:57:20;30.40;;;18.45;;
84309;SDS011;74488;49.036;11.472;2024-03-02T04:58:21;31.85;;;19.55;;
84309;SDS011;74488;49.036;11.472;2024-03-02T04:59:23;27.42;;;18.52;;
84309;SDS011;74488;49.036;11.472;2024-03-02T05:00:24;29.33;;;17.92;;
84309;SDS011;74488;49.036;11.472;2024-03-02T05:01:26;30.25;;;19.70;;
84309;SDS011;74488;49.036;11.472;2024-03-02T05:02:27;33.40;;;21.73;;
84309;SDS011;74488;49.036;11.472;2024-03-02T05:03:29;29.58;;;19.17;;
84309;SDS011;74488;49.036;11.472;2024-03-02T05:04:30;31.70;;;19.52;;
84309;SDS011;74488;49.036;11.472;2024-03-02T05:05:31;29.92;;;20.73;;
84309;SDS011;74488;49.036;11.472;2024-03-02T05:06:33;32.42;;;20.38;;
84309;SDS011;74488;49.036;11.472;2024-03-02T05:07:34;28.02;;;18.52;;
84309;SDS011;74488;49.036;11.472;2024-03-02T05:08:36;31.30;;;18.42;;
84309;SDS011;74488;49.036;11.472;2024-03-02T05:09:37;33.40;;;18.90;;
84309;SDS011;74488;49.036;11.472;2024-03-02T05:10:39;32.28;;;19.95;;
84309;SDS011;74488;49.036;11.472;2024-03-02T05:11:40;31.88;;;21.60;;
84309;SDS011;74488;49.036;11.472;2024-03-02T05:13:46;35.58;;;18.23;;
84309;SDS011;74488;49.036;11.472;2024-03-02T05:14:48;31.83;;;19.48;;
84309;SDS011;74488;49.036;11.472;2024-03-02T05:15:49;27.75;;;17.80;;
84309;SDS011;74488;49.036;11.472;2024-03-02T05:16:51;31.52;;;21.60;;
84309;SDS011;74488;49.036;11.472;2024-03-02T05:17:53;32.28;;;19.70;;
84309;SDS011;74488;49.036;11.472;2024-03-02T05:18:54;35.00;;;19.63;;
84309;SDS011;74488;49.036;11.472;2024-03-02T05:19:56;33.50;;;20.80;;
84309;SDS011;74488;49.036;11.472;2024-03-02T05:20:58;32.10;;;19.27;;
84309;SDS011;74488;49.036;11.472;2024-03-02T05:22:00;33.20;;;21.15;;
84309;SDS011;74488;49.036;11.472;2024-03-02T05:23:02;34.58;;;20.50;;
84309;SDS011;74488;49.036;11.472;2024-03-02T05:24:03;31.92;;;19.70;;
84309;SDS011;74488;49.036;11.472;2024-03-02T05:25:05;32.60;;;19.75;;
84309;SDS011;74488;49.036;11.472;2024-03-02T05:26:08;36.15;;;21.25;;
84309;SDS011;74488;49.036;11.472;2024-03-02T05:27:10;37.35;;;23.48;;
84309;SDS011;74488;49.036;11.472;2024-03-02T05:28:12;32.22;;;19.92;;
84309;SDS011;74488;49.036;11.472;2024-03-02T05:29:13;31.63;;;19.05;;
84309;SDS011;74488;49.036;11.472;2024-03-02T05:30:15;32.45;;;19.90;;
84309;SDS011;74488;49.036;11.472;2024-03-02T05:31:17;32.38;;;21.42;;
84309;SDS011;74488;49.036;11.472;2024-03-02T05:32:19;34.78;;;20.92;;
84309;SDS011;74488;49.036;11.472;2024-03-02T05:33:20;32.40;;;20.45;;
84309;SDS011;74488;49.036;11.472;2024-03-02T05:34:24;35.65;;;22.58;;
84309;SDS011;74488;49.036;11.472;2024-03-02T05:35:25;33.58;;;19.52;;
84309;SDS011;74488;49.036;11.472;2024-03-02T05:36:27;33.53;;;20.17;;
84309;SDS011;74488;49.036;11.472;2024-03-02T05:37:28;31.90;;;20.38;;
84309;SDS011;74488;49.036;11.472;2024-03-02T05:38:30;35.40;;;21.27;;
84309;SDS011;74488;49.036;11.472;2024-03-02T05:39:31;33.88;;;20.48;;
84309;SDS011;74488;49.036;11.472;2024-03-02T05:40:33;31.65;;;19.58;;
84309;SDS011;74488;49.036;11.472;2024-03-02T05:41:35;32.70;;;20.73;;
84309;SDS011;74488;49.036;11.472;2024-03-02T05:42:36;33.70;;;21.25;;
84309;SDS011;74488;49.036;11.472;2024-03-02T05:43:38;33.70;;;20.52;;
84309;SDS011;74488;49.036;11.472;2024-03-02T05:44:39;34.63;;;21.92;;
84309;SDS011;74488;49.036;11.472;2024-03-02T05:45:41;34.00;;;20.20;;
84309;SDS011;74488;49.036;11.472;2024-03-02T05:46:42;30.58;;;18.95;;
84309;SDS011;74488;49.036;11.472;2024-03-02T05:47:44;33.97;;;21.05;;
84309;SDS011;74488;49.036;11.472;2024-03-02T05:48:45;38.33;;;20.83;;
84309;SDS011;74488;49.036;11.472;2024-03-02T05:49:47;33.63;;;19.77;;
84309;SDS011;74488;49.036;11.472;2024-03-02T05:50:48;31.63;;;17.92;;
84309;SDS011;74488;49.036;11.472;2024-03-02T05:51:50;31.92;;;19.98;;
84309;SDS011;74488;49.036;11.472;2024-03-02T05:52:52;32.97;;;20.60;;
84309;SDS011;74488;49.036;11.472;2024-03-02T05:53:53;33.42;;;20.48;;
84309;SDS011;74488;49.036;11.472;2024-03-02T05:54:55;33.95;;;22.40;;
84309;SDS011;74488;49.036;11.472;2024-03-02T05:55:56;37.38;;;21.85;;
84309;SDS011;74488;49.036;11.472;2024-03-02T05:56:58;33.97;;;20.27;;
84309;SDS011;74488;49.036;11.472;2024-03-02T05:58:18;31.35;;;21.65;;
84309;SDS011;74488;49.036;11.472;2024-03-02T05:59:51;36.35;;;22.45;;
84309;SDS011;74488;49.036;11.472;2024-03-02T06:00:52;34.45;;;20.33;;
84309;SDS011;74488;49.036;11.472;2024-03-02T06:01:55;35.25;;;19.58;;